createdAt,value
2023-01-17T00:00:05.700Z,1.35
2023-01-17T00:04:26.311Z,1.30
2023-01-17T00:08:46.671Z,1.50
2023-01-17T00:12:51.984Z,1.52
2023-01-17T00:16:54.220Z,2.67
2023-01-17T00:21:14.618Z,1.52
2023-01-17T00:25:37.921Z,1.80
2023-01-17T00:29:39.644Z,1.25
2023-01-17T00:33:41.490Z,1.40
2023-01-17T00:37:43.363Z,1.10
2023-01-17T00:41:45.082Z,4.35
2023-01-17T00:46:06.086Z,2.22
2023-01-17T00:50:27.084Z,1.00
2023-01-17T00:54:47.600Z,0.95
2023-01-17T00:59:08.041Z,0.93
2023-01-17T01:03:29.511Z,1.15
2023-01-17T01:07:50.019Z,1.00
2023-01-17T01:12:10.361Z,1.42
2023-01-17T01:16:32.007Z,2.03
2023-01-17T01:20:52.257Z,4.32
2023-01-17T01:25:12.759Z,0.98
2023-01-17T01:29:32.924Z,1.10
2023-01-17T01:33:34.690Z,1.35
2023-01-17T01:37:36.486Z,1.00
2023-01-17T01:41:38.357Z,1.63
2023-01-17T01:45:40.906Z,1.05
2023-01-17T01:49:43.201Z,1.00
2023-01-17T01:53:50.968Z,1.13
2023-01-17T01:57:56.126Z,2.55
2023-01-17T02:01:58.400Z,2.25
2023-01-17T02:06:06.256Z,1.20
2023-01-17T02:10:09.700Z,1.02
2023-01-17T02:14:29.421Z,1.27
2023-01-17T02:18:53.446Z,1.00
2023-01-17T02:23:16.966Z,1.08
2023-01-17T02:27:27.496Z,1.50
2023-01-17T02:31:51.766Z,1.40
2023-01-17T02:35:56.993Z,1.00
2023-01-17T02:40:04.800Z,0.90
2023-01-17T02:44:10.278Z,1.00
2023-01-17T02:48:14.731Z,1.00
2023-01-17T02:52:38.091Z,1.13
2023-01-17T02:56:53.646Z,1.83
2023-01-17T03:01:14.165Z,1.10
2023-01-17T03:05:25.831Z,0.90
2023-01-17T03:09:30.142Z,1.08
2023-01-17T03:13:32.615Z,1.00
2023-01-17T03:17:34.442Z,0.90
2023-01-17T03:21:36.226Z,0.90
2023-01-17T03:25:38.042Z,1.58
2023-01-17T03:29:39.812Z,2.08
2023-01-17T03:33:41.639Z,1.10
2023-01-17T03:37:43.424Z,1.13
2023-01-17T03:41:45.192Z,1.15
2023-01-17T03:45:52.082Z,1.10
2023-01-17T03:53:55.606Z,1.00
2023-01-17T03:57:57.465Z,1.00
2023-01-17T04:01:59.369Z,0.93
2023-01-17T04:06:01.632Z,0.90
2023-01-17T04:10:04.267Z,1.20
2023-01-17T04:14:06.056Z,1.70
2023-01-17T04:18:07.880Z,1.52
2023-01-17T04:22:09.892Z,1.17
2023-01-17T04:26:12.387Z,1.10
2023-01-17T04:30:14.233Z,0.95
2023-01-17T04:34:16.095Z,0.90
2023-01-17T04:38:17.882Z,0.90
2023-01-17T04:42:19.696Z,0.80
2023-01-17T04:46:21.659Z,0.80
2023-01-17T04:50:23.678Z,0.90
2023-01-17T04:54:25.650Z,1.13
2023-01-17T04:58:27.817Z,0.93
2023-01-17T05:02:29.726Z,0.90
2023-01-17T05:06:31.555Z,1.05
2023-01-17T05:10:33.372Z,0.95
2023-01-17T05:14:35.261Z,0.90
2023-01-17T05:18:37.812Z,1.00
2023-01-17T05:22:39.694Z,1.00
2023-01-17T05:26:43.281Z,1.00
2023-01-17T05:30:45.312Z,1.20
2023-01-17T05:34:47.168Z,1.00
2023-01-17T05:38:48.982Z,1.20
2023-01-17T05:42:53.077Z,1.23
2023-01-17T05:46:56.348Z,1.40
2023-01-17T05:50:58.163Z,1.10
2023-01-17T05:54:59.958Z,1.50
2023-01-17T05:59:01.959Z,2.72
2023-01-17T06:03:04.145Z,1.85
2023-01-17T06:07:06.023Z,1.75
2023-01-17T06:11:07.816Z,2.25
2023-01-17T06:15:11.114Z,3.45
2023-01-17T06:19:12.871Z,2.05
2023-01-17T06:23:14.950Z,1.40
2023-01-17T06:27:16.768Z,1.23
2023-01-17T06:31:18.600Z,1.00
2023-01-17T06:35:20.939Z,0.93
2023-01-17T06:39:22.826Z,0.90
2023-01-17T06:43:24.586Z,1.13
2023-01-17T06:47:26.400Z,1.05
2023-01-17T06:51:28.186Z,1.25
2023-01-17T06:55:33.620Z,1.52
2023-01-17T06:59:35.541Z,1.17
2023-01-17T07:03:38.129Z,1.40
2023-01-17T07:07:39.879Z,1.48
2023-01-17T07:11:41.614Z,1.67
2023-01-17T07:15:43.407Z,2.35
2023-01-17T07:19:45.222Z,1.60
2023-01-17T07:23:48.217Z,1.80
2023-01-17T07:27:53.831Z,2.17
2023-01-17T07:31:56.163Z,1.35
2023-01-17T07:35:57.922Z,1.50
2023-01-17T07:40:01.096Z,2.58
2023-01-17T07:44:02.873Z,1.58
2023-01-17T07:48:04.748Z,1.55
2023-01-17T07:52:08.092Z,2.25
2023-01-17T07:56:09.954Z,2.80
2023-01-17T08:00:12.006Z,1.55
2023-01-17T08:04:16.411Z,1.42
2023-01-17T08:08:18.286Z,1.38
2023-01-17T08:12:20.090Z,1.50
2023-01-17T08:16:21.948Z,2.20
2023-01-17T08:20:27.490Z,1.85
2023-01-17T08:24:29.652Z,1.50
2023-01-17T08:28:31.641Z,1.40
2023-01-17T08:32:33.498Z,1.48
2023-01-17T08:36:35.233Z,1.50
2023-01-17T08:40:37.015Z,2.50
2023-01-17T08:44:39.794Z,1.55
2023-01-17T08:48:41.564Z,1.30
2023-01-17T08:52:43.324Z,1.10
2023-01-17T08:56:46.993Z,1.23
2023-01-17T09:00:48.898Z,1.90
2023-01-17T09:04:51.488Z,1.20
2023-01-17T09:08:54.820Z,1.27
2023-01-17T09:12:56.587Z,1.20
2023-01-17T09:16:58.938Z,1.00
2023-01-17T09:21:10.818Z,1.80
2023-01-17T09:25:12.586Z,1.05
2023-01-17T09:29:17.829Z,1.10
2023-01-17T09:33:20.158Z,1.90
2023-01-17T09:37:21.980Z,1.33
2023-01-17T09:41:53.241Z,1.20
2023-01-17T09:45:55.080Z,1.73
2023-01-17T09:50:06.274Z,2.83
2023-01-17T09:54:31.672Z,1.92
2023-01-17T09:59:02.562Z,2.17
2023-01-17T10:03:46.576Z,1.75
2023-01-17T10:08:17.112Z,1.92
2023-01-17T10:12:48.567Z,1.40
2023-01-17T10:17:39.914Z,1.70
2023-01-17T10:22:02.249Z,1.67
2023-01-17T10:26:21.800Z,1.65
2023-01-17T10:30:30.028Z,1.77
2023-01-17T10:34:46.286Z,1.20
2023-01-17T10:38:52.025Z,2.15
2023-01-17T10:43:01.043Z,1.48
2023-01-17T10:47:11.957Z,1.20
2023-01-17T10:51:29.534Z,1.60
2023-01-17T10:56:01.674Z,1.40
2023-01-17T11:00:18.013Z,1.77
2023-01-17T11:04:24.240Z,1.10
2023-01-17T11:08:26.053Z,1.17
2023-01-17T11:12:33.474Z,2.03
2023-01-17T11:16:37.307Z,1.50
2023-01-17T11:20:39.980Z,1.30
2023-01-17T11:24:48.768Z,0.90
2023-01-17T11:28:52.308Z,1.67
2023-01-17T11:32:57.511Z,2.25
2023-01-17T11:37:16.847Z,1.30
2023-01-17T11:41:21.187Z,1.38
2023-01-17T11:45:25.478Z,1.40
2023-01-17T11:49:29.383Z,1.65
2023-01-17T11:53:36.254Z,1.38
2023-01-17T11:57:38.042Z,1.58
2023-01-17T12:01:55.801Z,1.20
2023-01-17T12:06:08.606Z,1.25
2023-01-17T12:10:57.819Z,1.48
2023-01-17T12:15:08.396Z,1.17
2023-01-17T12:19:45.615Z,2.67
2023-01-17T12:24:04.237Z,1.40
2023-01-17T12:28:27.661Z,1.35
2023-01-17T12:32:47.549Z,1.45
2023-01-17T12:37:02.936Z,1.73
2023-01-17T12:41:36.805Z,1.30
2023-01-17T12:45:43.091Z,1.52
2023-01-17T12:50:23.981Z,1.60
2023-01-17T12:54:41.745Z,1.50
2023-01-17T12:58:49.531Z,1.30
2023-01-17T13:03:09.879Z,1.80
2023-01-17T13:07:44.202Z,1.10
2023-01-17T13:11:55.380Z,1.92
2023-01-17T13:16:11.912Z,1.20
2023-01-17T13:20:28.810Z,1.50
2023-01-17T13:24:33.354Z,2.05
2023-01-17T13:28:55.071Z,2.35
2023-01-17T13:33:27.545Z,1.75
2023-01-17T13:37:41.581Z,1.30
2023-01-17T13:41:52.422Z,1.13
2023-01-17T13:45:59.877Z,1.27
2023-01-17T13:50:01.833Z,1.00
2023-01-17T13:54:07.596Z,1.10
2023-01-17T13:58:28.156Z,1.20
2023-01-17T14:02:33.039Z,1.10
2023-01-17T14:06:35.449Z,1.88
2023-01-17T14:10:38.297Z,1.17
2023-01-17T14:14:40.068Z,1.75
2023-01-17T14:18:43.867Z,1.58
2023-01-17T14:22:53.584Z,1.30
2023-01-17T14:27:14.825Z,1.05
2023-01-17T14:31:17.318Z,1.23
2023-01-17T14:35:23.601Z,1.00
2023-01-17T14:39:25.642Z,1.15
2023-01-17T14:43:32.415Z,1.25
2023-01-17T14:47:41.564Z,1.40
2023-01-17T14:51:43.331Z,1.40
2023-01-17T14:55:47.858Z,1.67
2023-01-17T14:59:49.758Z,1.35
2023-01-17T15:03:53.973Z,1.92
2023-01-17T15:07:58.187Z,1.20
2023-01-17T15:12:02.587Z,2.10
2023-01-17T15:16:16.780Z,1.70
2023-01-17T15:20:20.669Z,1.73
2023-01-17T15:24:28.817Z,1.42
2023-01-17T15:28:32.680Z,3.13
2023-01-17T15:32:34.495Z,1.60
2023-01-17T15:36:36.546Z,1.48
2023-01-17T15:40:43.660Z,1.90
2023-01-17T15:44:48.937Z,1.73
2023-01-17T15:48:51.915Z,1.23
2023-01-17T15:53:00.905Z,1.10
2023-01-17T15:57:36.879Z,1.40
2023-01-17T16:01:39.056Z,1.30
2023-01-17T16:05:43.705Z,2.13
2023-01-17T16:09:46.099Z,1.27
2023-01-17T16:13:48.585Z,2.17
2023-01-17T16:18:11.895Z,2.03
2023-01-17T16:22:13.650Z,2.85
2023-01-17T16:26:15.916Z,2.95
2023-01-17T16:30:20.102Z,1.80
2023-01-17T16:34:23.896Z,1.98
2023-01-17T16:38:25.725Z,1.88
2023-01-17T16:42:28.635Z,1.63
2023-01-17T16:46:30.671Z,1.65
2023-01-17T16:50:32.512Z,2.15
2023-01-17T16:54:34.675Z,2.90
2023-01-17T16:58:36.462Z,6.72
2023-01-17T17:02:41.143Z,4.20
2023-01-17T17:06:43.015Z,3.00
2023-01-17T17:10:44.751Z,2.25
2023-01-17T17:14:46.530Z,2.22
2023-01-17T17:18:55.881Z,2.50
2023-01-17T17:22:57.672Z,3.70
2023-01-17T17:26:59.426Z,1.75
2023-01-17T17:31:06.192Z,2.85
2023-01-17T17:39:14.918Z,2.00
2023-01-17T17:43:16.747Z,1.98
2023-01-17T17:47:18.509Z,2.65
2023-01-17T17:51:38.556Z,1.85
2023-01-17T17:55:41.031Z,2.10
2023-01-17T17:59:42.793Z,2.33
2023-01-17T18:03:45.052Z,1.83
2023-01-17T18:07:46.882Z,1.48
2023-01-17T18:11:48.647Z,2.15
2023-01-17T18:15:50.435Z,1.73
2023-01-17T18:19:52.678Z,2.78
2023-01-17T18:23:56.681Z,2.78
2023-01-17T18:27:58.423Z,2.65
2023-01-17T18:32:00.148Z,3.67
2023-01-17T18:36:04.627Z,3.65
2023-01-17T18:40:07.196Z,2.78
2023-01-17T18:44:10.242Z,2.47
2023-01-17T18:48:13.166Z,3.38
2023-01-17T18:52:15.062Z,20.33
2023-01-17T18:56:20.594Z,9.90
2023-01-17T19:00:23.144Z,11.45
2023-01-17T19:04:24.947Z,6.60
2023-01-17T19:08:29.314Z,11.27
2023-01-17T19:12:31.039Z,5.38
2023-01-17T19:16:36.429Z,4.13
2023-01-17T19:20:38.289Z,3.35
2023-01-17T19:24:40.820Z,5.32
2023-01-17T19:28:45.174Z,4.43
2023-01-17T19:32:49.549Z,2.78
2023-01-17T19:36:53.157Z,5.90
2023-01-17T19:40:54.925Z,4.32
2023-01-17T19:44:56.730Z,3.97
2023-01-17T19:48:59.690Z,4.32
2023-01-17T19:53:01.518Z,4.10
2023-01-17T19:57:03.415Z,4.43
2023-01-17T20:01:10.765Z,5.22
2023-01-17T20:05:12.578Z,3.50
2023-01-17T20:09:14.301Z,3.80
2023-01-17T20:13:16.120Z,2.83
2023-01-17T20:17:17.898Z,3.25
2023-01-17T20:21:22.504Z,5.18
2023-01-17T20:25:24.462Z,4.45
2023-01-17T20:29:26.426Z,3.05
2023-01-17T20:33:28.281Z,3.15
2023-01-17T20:37:30.177Z,4.68
2023-01-17T20:41:35.544Z,6.82
2023-01-17T20:45:37.597Z,4.07
2023-01-17T20:49:41.558Z,4.07
2023-01-17T20:53:44.765Z,7.72
2023-01-17T20:57:46.533Z,6.35
2023-01-17T21:01:49.743Z,8.75
2023-01-17T21:05:51.849Z,7.03
2023-01-17T21:09:53.662Z,7.13
2023-01-17T21:13:56.300Z,5.40
2023-01-17T21:17:58.270Z,4.28
2023-01-17T21:22:00.143Z,3.83
2023-01-17T21:26:02.058Z,2.60
2023-01-17T21:30:04.617Z,3.72
2023-01-17T21:34:08.114Z,3.50
2023-01-17T21:38:10.200Z,2.97
2023-01-17T21:42:11.970Z,5.13
2023-01-17T21:46:14.124Z,3.05
2023-01-17T21:50:32.272Z,8.25
2023-01-17T21:54:53.054Z,3.63
2023-01-17T21:58:56.906Z,4.07
2023-01-17T22:02:59.069Z,4.07
2023-01-17T22:07:00.930Z,3.30
2023-01-17T22:11:07.269Z,4.68
2023-01-17T22:15:09.463Z,3.53
2023-01-17T22:19:11.223Z,3.78
2023-01-17T22:23:13.037Z,1.60
2023-01-17T22:27:14.799Z,2.03
2023-01-17T22:31:20.836Z,2.20
2023-01-17T22:35:23.973Z,3.73
2023-01-17T22:39:25.741Z,4.00
2023-01-17T22:43:27.587Z,3.70
2023-01-17T22:47:30.120Z,2.97
2023-01-17T22:51:31.930Z,2.75
2023-01-17T22:55:33.713Z,3.08
2023-01-17T22:59:35.618Z,2.40
2023-01-17T23:03:37.907Z,2.28
2023-01-17T23:07:45.312Z,3.05
2023-01-17T23:11:54.031Z,3.13
2023-01-17T23:16:14.617Z,4.47
2023-01-17T23:20:16.513Z,14.45
2023-01-17T23:24:18.354Z,7.90
2023-01-17T23:28:20.950Z,7.80
2023-01-17T23:32:23.006Z,5.43
2023-01-17T23:36:24.738Z,4.75
2023-01-17T23:40:26.748Z,4.97
2023-01-17T23:44:31.793Z,3.67
2023-01-17T23:48:33.575Z,7.97
2023-01-17T23:52:35.360Z,4.80
2023-01-17T23:56:37.098Z,3.35
